createdAt,value
2023-04-10T00:01:28.350Z,101733.78
2023-04-10T00:04:00.416Z,101755.06
2023-04-10T00:06:33.033Z,101741.09
2023-04-10T00:09:04.371Z,101733.09
2023-04-10T00:11:35.898Z,101719.09
2023-04-10T00:14:08.309Z,101688.19
2023-04-10T00:16:39.812Z,101711.34
2023-04-10T00:19:11.291Z,101718.56
2023-04-10T00:21:42.851Z,101699.09
2023-04-10T00:24:14.342Z,101694.59
2023-04-10T00:26:46.031Z,101712.44
2023-04-10T00:29:17.598Z,101712.50
2023-04-10T00:31:49.868Z,101727.47
2023-04-10T00:34:21.234Z,101709.78
2023-04-10T00:36:52.570Z,101720.41
2023-04-10T00:39:23.942Z,101713.28
2023-04-10T00:41:55.287Z,101655.69
2023-04-10T00:44:26.682Z,101732.81
2023-04-10T00:46:58.068Z,101719.63
2023-04-10T00:49:29.635Z,101693.09
2023-04-10T00:52:01.524Z,101707.28
2023-04-10T00:54:34.678Z,101709.97
2023-04-10T00:57:06.200Z,101732.16
2023-04-10T00:59:38.133Z,101721.47
2023-04-10T01:02:13.055Z,101710.91
2023-04-10T01:04:44.786Z,101701.25
2023-04-10T01:07:35.713Z,101717.16
2023-04-10T01:10:20.352Z,101733.09
2023-04-10T01:13:13.507Z,101724.25
2023-04-10T01:15:52.770Z,101714.41
2023-04-10T01:18:31.780Z,101709.91
2023-04-10T01:21:09.271Z,101687.88
2023-04-10T01:23:57.416Z,101671.00
2023-04-10T01:26:52.874Z,101639.19
2023-04-10T01:29:29.542Z,101696.72
2023-04-10T01:32:04.839Z,101721.50
2023-04-10T01:34:43.640Z,101725.88
2023-04-10T01:37:24.691Z,101690.50
2023-04-10T01:40:08.555Z,101704.69
2023-04-10T01:42:45.240Z,101701.13
2023-04-10T01:45:21.004Z,101688.72
2023-04-10T01:47:53.299Z,101693.16
2023-04-10T01:50:28.713Z,101687.91
2023-04-10T01:53:01.688Z,101692.31
2023-04-10T01:55:34.103Z,101689.72
2023-04-10T01:58:06.338Z,101695.09
2023-04-10T02:00:42.984Z,101687.22
2023-04-10T02:03:14.671Z,101673.00
2023-04-10T02:05:56.841Z,101654.53
2023-04-10T02:08:39.892Z,101639.50
2023-04-10T02:11:17.774Z,101677.59
2023-04-10T02:13:50.971Z,101663.59
2023-04-10T02:16:23.657Z,101676.00
2023-04-10T02:18:56.265Z,101650.31
2023-04-10T02:21:28.894Z,101582.13
2023-04-10T02:24:00.769Z,101620.31
2023-04-10T02:26:53.098Z,101653.13
2023-04-10T02:29:24.559Z,101648.75
2023-04-10T02:31:56.120Z,101571.69
2023-04-10T02:34:27.496Z,101655.88
2023-04-10T02:36:59.124Z,101637.28
2023-04-10T02:39:30.647Z,101605.47
2023-04-10T02:42:02.312Z,101644.41
2023-04-10T02:44:33.810Z,101631.16
2023-04-10T02:47:06.392Z,101634.66
2023-04-10T02:49:39.731Z,101647.09
2023-04-10T02:52:11.210Z,101639.94
2023-04-10T02:54:42.737Z,101631.06
2023-04-10T02:57:14.087Z,101634.59
2023-04-10T02:59:45.862Z,101641.66
2023-04-10T03:02:19.517Z,101637.19
2023-04-10T03:04:54.464Z,101631.00
2023-04-10T03:07:27.370Z,101617.59
2023-04-10T03:09:59.763Z,101638.72
2023-04-10T03:12:31.779Z,101547.56
2023-04-10T03:15:03.360Z,101622.66
2023-04-10T03:17:35.013Z,101601.47
2023-04-10T03:20:07.067Z,101600.50
2023-04-10T03:22:39.648Z,101534.94
2023-04-10T03:25:11.233Z,101518.16
2023-04-10T03:27:42.615Z,101596.91
2023-04-10T03:30:14.049Z,101605.81
2023-04-10T03:32:45.459Z,101596.09
2023-04-10T03:35:16.848Z,101573.97
2023-04-10T03:37:48.242Z,101597.03
2023-04-10T03:40:20.031Z,101610.31
2023-04-10T03:42:52.122Z,101599.72
2023-04-10T03:45:23.984Z,101492.47
2023-04-10T03:47:58.470Z,101604.06
2023-04-10T03:50:29.898Z,101589.03
2023-04-10T03:53:01.530Z,101579.16
2023-04-10T03:55:32.852Z,101600.50
2023-04-10T03:58:05.244Z,101499.50
2023-04-10T04:00:36.596Z,101593.38
2023-04-10T04:03:08.499Z,101565.97
2023-04-10T04:05:40.238Z,101585.44
2023-04-10T04:08:13.827Z,101574.72
2023-04-10T04:10:45.698Z,101563.25
2023-04-10T04:13:17.079Z,101576.53
2023-04-10T04:15:48.613Z,101524.09
2023-04-10T04:18:20.012Z,101570.22
2023-04-10T04:20:51.486Z,101579.16
2023-04-10T04:23:22.948Z,101571.06
2023-04-10T04:25:56.365Z,101552.47
2023-04-10T04:28:30.194Z,101560.44
2023-04-10T04:31:02.548Z,101555.00
2023-04-10T04:33:33.938Z,101556.78
2023-04-10T04:36:05.534Z,101507.22
2023-04-10T04:38:37.098Z,101569.97
2023-04-10T04:41:08.575Z,101578.78
2023-04-10T04:43:39.898Z,101582.38
2023-04-10T04:46:11.302Z,101570.84
2023-04-10T04:48:42.724Z,101572.59
2023-04-10T04:51:14.865Z,101577.94
2023-04-10T04:53:46.306Z,101575.28
2023-04-10T04:56:17.649Z,101583.25
2023-04-10T04:58:49.181Z,101559.50
2023-04-10T05:01:20.603Z,101570.94
2023-04-10T05:03:52.203Z,101606.47
2023-04-10T05:06:23.755Z,101555.13
2023-04-10T05:08:55.608Z,101591.59
2023-04-10T05:11:27.284Z,101534.06
2023-04-10T05:13:59.659Z,101598.88
2023-04-10T05:16:31.040Z,101510.38
2023-04-10T05:19:02.431Z,101576.03
2023-04-10T05:21:33.774Z,101584.13
2023-04-10T05:24:05.475Z,101498.47
2023-04-10T05:26:36.874Z,101583.53
2023-04-10T05:29:08.545Z,101561.66
2023-04-10T05:31:40.128Z,101586.56
2023-04-10T05:34:11.835Z,101587.59
2023-04-10T05:36:43.389Z,101506.44
2023-04-10T05:39:15.676Z,101511.03
2023-04-10T05:41:47.071Z,101575.81
2023-04-10T05:44:18.657Z,101540.00
2023-04-10T05:46:50.051Z,101505.06
2023-04-10T05:49:21.530Z,101546.56
2023-04-10T05:51:53.414Z,101574.78
2023-04-10T05:54:24.876Z,101573.00
2023-04-10T05:56:56.701Z,101574.72
2023-04-10T05:59:28.275Z,101580.09
2023-04-10T06:01:59.711Z,101494.44
2023-04-10T06:04:32.596Z,101558.91
2023-04-10T06:07:04.095Z,101560.69
2023-04-10T06:09:35.500Z,101520.06
2023-04-10T06:12:06.872Z,101551.84
2023-04-10T06:14:38.474Z,101531.50
2023-04-10T06:17:11.924Z,101552.69
2023-04-10T06:19:44.948Z,101535.91
2023-04-10T06:22:16.262Z,101467.91
2023-04-10T06:24:48.731Z,101520.88
2023-04-10T06:27:20.091Z,101527.94
2023-04-10T06:29:51.523Z,101498.78
2023-04-10T06:32:22.933Z,101519.88
2023-04-10T06:34:54.475Z,101536.59
2023-04-10T06:37:31.327Z,101546.22
2023-04-10T06:40:07.351Z,101521.44
2023-04-10T06:42:38.746Z,101526.63
2023-04-10T06:45:10.593Z,101521.19
2023-04-10T06:47:42.405Z,101521.09
2023-04-10T06:50:13.888Z,101532.38
2023-04-10T06:52:46.104Z,101515.44
2023-04-10T06:55:17.820Z,101522.53
2023-04-10T06:57:49.308Z,101515.38
2023-04-10T07:00:21.221Z,101473.88
2023-04-10T07:02:52.728Z,101509.97
2023-04-10T07:05:24.174Z,101452.59
2023-04-10T07:07:55.825Z,101514.22
2023-04-10T07:10:27.372Z,101527.38
2023-04-10T07:12:58.920Z,101532.66
2023-04-10T07:15:30.634Z,101523.81
2023-04-10T07:18:02.096Z,101512.31
2023-04-10T07:20:33.650Z,101514.03
2023-04-10T07:23:05.173Z,101526.25
2023-04-10T07:25:36.536Z,101472.25
2023-04-10T07:28:07.880Z,101504.63
2023-04-10T07:30:39.400Z,101521.03
2023-04-10T07:33:11.177Z,101508.34
2023-04-10T07:35:42.669Z,101482.50
2023-04-10T07:38:14.132Z,101497.84
2023-04-10T07:40:45.523Z,101510.69
2023-04-10T07:43:16.914Z,101450.56
2023-04-10T07:45:48.621Z,101485.56
2023-04-10T07:48:20.192Z,101512.78
2023-04-10T07:50:51.564Z,101504.50
2023-04-10T07:53:22.929Z,101493.41
2023-04-10T07:55:54.401Z,101484.25
2023-04-10T07:58:25.882Z,101475.88
2023-04-10T08:00:57.797Z,101483.47
2023-04-10T08:03:29.364Z,101487.69
2023-04-10T08:06:01.090Z,101474.88
2023-04-10T08:08:32.738Z,101494.69
2023-04-10T08:11:08.639Z,101479.75
2023-04-10T08:13:40.351Z,101488.59
2023-04-10T08:16:11.712Z,101482.47
2023-04-10T08:18:43.225Z,101472.41
2023-04-10T08:21:14.631Z,101420.97
2023-04-10T08:23:48.926Z,101449.84
2023-04-10T08:26:21.536Z,101454.72
2023-04-10T08:28:54.443Z,101459.41
2023-04-10T08:31:28.073Z,101426.41
2023-04-10T08:34:00.299Z,101433.84
2023-04-10T08:36:32.086Z,101467.75
2023-04-10T08:39:03.474Z,101425.56
2023-04-10T08:41:34.871Z,101438.41
2023-04-10T08:44:06.416Z,101441.75
2023-04-10T08:46:43.742Z,101399.31
2023-04-10T08:49:39.244Z,101457.22
2023-04-10T08:52:15.847Z,101381.56
2023-04-10T08:54:58.558Z,101441.84
2023-04-10T08:57:30.382Z,101446.16
2023-04-10T09:00:09.616Z,101374.16
2023-04-10T09:02:55.335Z,101422.31
2023-04-10T09:05:28.369Z,101424.91
2023-04-10T09:07:59.779Z,101419.25
2023-04-10T09:10:31.658Z,101416.94
2023-04-10T09:13:03.080Z,101422.75
2023-04-10T09:16:00.435Z,101418.53
2023-04-10T09:18:51.350Z,101370.81
2023-04-10T09:21:23.011Z,101393.41
2023-04-10T09:24:01.054Z,101346.66
2023-04-10T09:26:33.630Z,101387.41
2023-04-10T09:29:07.585Z,101348.97
2023-04-10T09:31:40.157Z,101369.88
2023-04-10T09:34:22.792Z,101287.69
2023-04-10T09:36:56.842Z,101346.31
2023-04-10T09:39:36.141Z,101362.81
2023-04-10T09:42:07.627Z,101339.53
2023-04-10T09:44:40.652Z,101330.25
2023-04-10T09:47:14.778Z,101348.16
2023-04-10T09:50:02.852Z,101272.06
2023-04-10T09:52:38.277Z,101316.00
2023-04-10T09:55:16.914Z,101268.50
2023-04-10T09:57:48.297Z,101312.84
2023-04-10T10:00:20.759Z,101316.88
2023-04-10T10:02:54.481Z,101274.66
2023-04-10T10:05:30.725Z,101298.44
2023-04-10T10:08:02.222Z,101298.38
2023-04-10T10:10:33.999Z,101244.53
2023-04-10T10:13:08.456Z,101292.56
2023-04-10T10:16:09.352Z,101284.47
2023-04-10T10:19:04.185Z,101267.56
2023-04-10T10:21:36.781Z,101274.13
2023-04-10T10:24:09.441Z,101256.06
2023-04-10T10:26:41.274Z,101246.75
2023-04-10T10:29:15.998Z,101220.84
2023-04-10T10:31:47.752Z,101242.44
2023-04-10T10:34:19.858Z,101241.13
2023-04-10T10:36:51.220Z,101160.25
2023-04-10T10:39:42.309Z,101160.28
2023-04-10T10:42:23.386Z,101225.56
2023-04-10T10:45:15.817Z,101207.66
2023-04-10T10:47:53.343Z,101186.25
2023-04-10T10:50:25.028Z,101207.72
2023-04-10T10:52:57.508Z,101218.53
2023-04-10T10:55:35.085Z,101148.63
2023-04-10T10:58:11.192Z,101152.81
2023-04-10T11:00:51.617Z,101194.66
2023-04-10T11:03:23.177Z,101203.78
2023-04-10T11:05:55.284Z,101174.38
2023-04-10T11:08:32.651Z,101178.84
2023-04-10T11:11:11.067Z,101159.63
2023-04-10T11:14:05.573Z,101161.78
2023-04-10T11:16:41.609Z,101172.66
2023-04-10T11:19:16.136Z,101148.13
2023-04-10T11:22:06.013Z,101127.38
2023-04-10T11:24:53.404Z,101141.31
2023-04-10T11:27:41.210Z,101133.94
2023-04-10T11:30:32.647Z,101130.13
2023-04-10T11:33:05.425Z,101134.28
2023-04-10T11:35:37.255Z,101083.81
2023-04-10T11:38:13.618Z,101099.84
2023-04-10T11:41:06.813Z,101106.97
2023-04-10T11:43:39.185Z,101069.34
2023-04-10T11:46:10.872Z,101069.69
2023-04-10T11:48:42.815Z,101101.34
2023-04-10T11:51:14.691Z,101114.56
2023-04-10T11:53:46.428Z,101050.03
2023-04-10T11:56:21.333Z,101045.09
2023-04-10T11:58:54.425Z,101094.91
2023-04-10T12:01:26.383Z,101057.69
2023-04-10T12:03:57.979Z,101067.19
2023-04-10T12:06:29.783Z,101057.19
2023-04-10T12:09:13.297Z,101060.63
2023-04-10T12:11:54.707Z,101019.25
2023-04-10T12:14:39.989Z,100982.00
2023-04-10T12:17:12.818Z,101054.31
2023-04-10T12:19:44.514Z,100993.50
2023-04-10T12:22:15.922Z,101040.53
2023-04-10T12:24:48.152Z,101053.94
2023-04-10T12:27:27.648Z,101024.69
2023-04-10T12:29:59.201Z,101002.56
2023-04-10T12:32:30.728Z,101036.53
2023-04-10T12:35:02.267Z,101013.06
2023-04-10T12:37:50.453Z,101033.44
2023-04-10T12:40:21.997Z,100959.50
2023-04-10T12:42:53.328Z,101016.88
2023-04-10T12:45:45.925Z,100974.97
2023-04-10T12:48:24.151Z,100965.75
2023-04-10T12:50:55.555Z,101015.69
2023-04-10T12:53:28.117Z,101013.59
2023-04-10T12:56:02.123Z,101005.81
2023-04-10T12:58:33.569Z,100993.34
2023-04-10T13:01:07.158Z,100963.19
2023-04-10T13:03:38.883Z,101007.13
2023-04-10T13:06:10.317Z,100985.78
2023-04-10T13:08:41.730Z,100974.47
2023-04-10T13:11:13.060Z,100984.03
2023-04-10T13:13:44.393Z,100976.72
2023-04-10T13:16:17.014Z,100915.44
2023-04-10T13:18:48.479Z,100885.88
2023-04-10T13:21:22.889Z,100964.63
2023-04-10T13:23:56.030Z,100886.06
2023-04-10T13:26:27.484Z,100910.78
2023-04-10T13:28:58.825Z,100917.91
2023-04-10T13:31:30.325Z,100876.31
2023-04-10T13:34:01.949Z,100927.16
2023-04-10T13:36:33.386Z,100922.22
2023-04-10T13:39:04.827Z,100910.81
2023-04-10T13:41:36.140Z,100909.91
2023-04-10T13:44:07.507Z,100885.78
2023-04-10T13:46:38.847Z,100843.00
2023-04-10T13:49:10.379Z,100825.16
2023-04-10T13:51:41.885Z,100833.00
2023-04-10T13:54:14.127Z,100800.47
2023-04-10T13:56:46.417Z,100880.47
2023-04-10T13:59:17.899Z,100864.84
2023-04-10T14:01:52.419Z,100877.16
2023-04-10T14:04:23.948Z,100854.59
2023-04-10T14:06:58.655Z,100863.88
2023-04-10T14:09:30.173Z,100839.25
2023-04-10T14:12:01.943Z,100841.53
2023-04-10T14:14:33.470Z,100843.28
2023-04-10T14:17:04.893Z,100787.44
2023-04-10T14:19:37.447Z,100802.13
2023-04-10T14:22:08.810Z,100792.09
2023-04-10T14:24:40.186Z,100797.44
2023-04-10T14:27:13.283Z,100724.75
2023-04-10T14:29:53.909Z,100769.53
2023-04-10T14:32:26.308Z,100774.94
2023-04-10T14:34:57.746Z,100755.75
2023-04-10T14:37:29.125Z,100755.66
2023-04-10T14:40:00.640Z,100752.38
2023-04-10T14:42:31.965Z,100737.78
2023-04-10T14:45:05.462Z,100730.31
2023-04-10T14:47:37.072Z,100718.56
2023-04-10T14:50:08.823Z,100728.75
2023-04-10T14:52:40.172Z,100704.63
2023-04-10T14:55:11.922Z,100714.84
2023-04-10T14:57:43.308Z,100708.16
2023-04-10T15:00:14.919Z,100705.00
2023-04-10T15:02:46.719Z,100684.47
2023-04-10T15:05:18.338Z,100635.88
2023-04-10T15:07:49.723Z,100699.25
2023-04-10T15:10:21.291Z,100690.88
2023-04-10T15:12:52.618Z,100691.25
2023-04-10T15:15:23.954Z,100664.16
2023-04-10T15:17:55.580Z,100664.63
2023-04-10T15:20:26.977Z,100684.88
2023-04-10T15:22:58.705Z,100644.78
2023-04-10T15:25:32.948Z,100600.66
2023-04-10T15:28:04.636Z,100655.06
2023-04-10T15:30:36.292Z,100568.09
2023-04-10T15:33:07.889Z,100566.56
2023-04-10T15:35:39.376Z,100603.75
2023-04-10T15:38:11.591Z,100609.72
2023-04-10T15:40:43.020Z,100611.78
2023-04-10T15:43:14.531Z,100605.78
2023-04-10T15:45:46.786Z,100571.75
2023-04-10T15:48:19.192Z,100546.31
2023-04-10T15:50:50.717Z,100522.75
2023-04-10T15:53:22.028Z,100578.13
2023-04-10T15:55:53.696Z,100564.22
2023-04-10T15:58:25.217Z,100527.88
2023-04-10T16:00:56.566Z,100580.28
2023-04-10T16:03:30.163Z,100522.25
2023-04-10T16:06:01.971Z,100544.13
2023-04-10T16:08:33.297Z,100531.00
2023-04-10T16:11:04.999Z,100552.72
2023-04-10T16:13:38.636Z,100547.50
2023-04-10T16:16:17.972Z,100455.22
2023-04-10T16:18:49.559Z,100496.78
2023-04-10T16:21:21.811Z,100537.94
2023-04-10T16:23:53.557Z,100511.53
2023-04-10T16:26:25.782Z,100491.56
2023-04-10T16:28:57.340Z,100527.50
2023-04-10T16:31:28.931Z,100492.63
2023-04-10T16:34:01.343Z,100505.59
2023-04-10T16:36:32.913Z,100492.84
2023-04-10T16:39:04.328Z,100476.59
2023-04-10T16:41:35.700Z,100496.19
2023-04-10T16:44:07.003Z,100471.31
2023-04-10T16:46:38.462Z,100477.72
2023-04-10T16:49:10.055Z,100474.41
2023-04-10T16:51:41.426Z,100450.09
2023-04-10T16:54:13.074Z,100460.59
2023-04-10T16:56:45.805Z,100454.53
2023-04-10T16:59:17.227Z,100451.28
2023-04-10T17:01:48.655Z,100392.88
2023-04-10T17:04:20.421Z,100375.69
2023-04-10T17:06:51.858Z,100418.44
2023-04-10T17:09:23.345Z,100437.16
2023-04-10T17:11:54.705Z,100435.75
2023-04-10T17:14:26.054Z,100435.03
2023-04-10T17:16:57.566Z,100417.59
2023-04-10T17:19:30.358Z,100435.16
2023-04-10T17:22:01.781Z,100427.53
2023-04-10T17:24:33.250Z,100410.16
2023-04-10T17:27:04.607Z,100411.97
2023-04-10T17:29:39.342Z,100382.59
2023-04-10T17:32:10.750Z,100421.50
2023-04-10T17:34:42.172Z,100406.28
2023-04-10T17:37:13.567Z,100379.38
2023-04-10T17:39:45.093Z,100391.13
2023-04-10T17:42:16.443Z,100359.13
2023-04-10T17:44:47.732Z,100398.59
2023-04-10T17:47:19.058Z,100341.66
2023-04-10T17:49:50.463Z,100403.47
2023-04-10T17:52:22.624Z,100388.91
2023-04-10T17:54:54.171Z,100385.66
2023-04-10T17:57:25.675Z,100344.06
2023-04-10T17:59:57.073Z,100381.63
2023-04-10T18:02:28.483Z,100392.19
2023-04-10T18:05:02.035Z,100372.59
2023-04-10T18:07:33.413Z,100309.41
2023-04-10T18:10:10.557Z,100371.94
2023-04-10T18:12:42.586Z,100391.47
2023-04-10T18:15:17.053Z,100389.00
2023-04-10T18:17:48.438Z,100370.63
2023-04-10T18:20:20.852Z,100371.63
2023-04-10T18:22:52.339Z,100384.97
2023-04-10T18:25:23.675Z,100370.91
2023-04-10T18:28:12.960Z,100344.84
2023-04-10T18:30:45.487Z,100377.22
2023-04-10T18:33:20.647Z,100366.72
2023-04-10T18:35:57.390Z,100278.19
2023-04-10T18:38:28.796Z,100289.63
2023-04-10T18:41:00.219Z,100350.34
2023-04-10T18:43:31.575Z,100299.44
2023-04-10T18:46:03.138Z,100332.38
2023-04-10T18:48:35.964Z,100284.47
2023-04-10T18:51:07.784Z,100330.88
2023-04-10T18:53:40.053Z,100316.31
2023-04-10T18:56:11.366Z,100325.22
2023-04-10T18:58:42.860Z,100290.34
2023-04-10T19:01:14.470Z,100325.22
2023-04-10T19:03:47.950Z,100285.78
2023-04-10T19:06:23.982Z,100296.88
2023-04-10T19:08:55.892Z,100295.00
2023-04-10T19:11:27.451Z,100283.56
2023-04-10T19:13:59.015Z,100311.69
2023-04-10T19:16:30.540Z,100287.47
2023-04-10T19:19:02.438Z,100294.34
2023-04-10T19:21:34.441Z,100296.22
2023-04-10T19:24:05.878Z,100280.56
2023-04-10T19:26:37.949Z,100276.91
2023-04-10T19:29:09.376Z,100206.63
2023-04-10T19:31:41.059Z,100276.03
2023-04-10T19:34:12.611Z,100274.34
2023-04-10T19:36:44.131Z,100261.25
2023-04-10T19:39:15.735Z,100260.47
2023-04-10T19:41:47.456Z,100254.38
2023-04-10T19:44:19.104Z,100249.03
2023-04-10T19:46:50.567Z,100248.09
2023-04-10T19:49:22.006Z,100245.94
2023-04-10T19:51:53.529Z,100253.81
2023-04-10T19:54:24.961Z,100241.44
2023-04-10T19:56:57.778Z,100230.16
2023-04-10T19:59:29.358Z,100217.94
2023-04-10T20:02:00.774Z,100201.47
2023-04-10T20:04:32.703Z,100203.78
2023-04-10T20:07:04.179Z,100197.00
2023-04-10T20:09:35.702Z,100194.22
2023-04-10T20:12:08.433Z,100187.13
2023-04-10T20:14:39.895Z,100173.06
2023-04-10T20:17:12.119Z,100153.09
2023-04-10T20:19:43.511Z,100162.69
2023-04-10T20:22:14.885Z,100158.22
2023-04-10T20:24:46.409Z,100160.69
2023-04-10T20:27:17.869Z,100111.88
2023-04-10T20:29:50.231Z,100073.00
2023-04-10T20:32:21.596Z,100115.28
2023-04-10T20:34:52.979Z,100127.34
2023-04-10T20:37:24.605Z,100108.13
2023-04-10T20:39:55.982Z,100131.25
2023-04-10T20:42:27.338Z,100109.22
2023-04-10T20:44:58.692Z,100117.16
2023-04-10T20:47:30.358Z,100137.53
2023-04-10T20:50:01.809Z,100107.31
2023-04-10T20:52:34.131Z,100121.28
2023-04-10T20:55:06.248Z,100135.28
2023-04-10T20:57:37.675Z,100157.53
2023-04-10T21:00:09.855Z,100137.09
2023-04-10T21:02:41.394Z,100147.28
2023-04-10T21:05:12.971Z,100139.66
2023-04-10T21:07:45.775Z,100146.75
2023-04-10T21:10:17.216Z,100170.00
2023-04-10T21:12:48.484Z,100158.25
2023-04-10T21:15:20.041Z,100150.91
2023-04-10T21:17:51.471Z,100152.44
2023-04-10T21:20:23.151Z,100073.78
2023-04-10T21:22:54.510Z,100142.81
2023-04-10T21:25:26.049Z,100113.72
2023-04-10T21:27:57.420Z,100131.22
2023-04-10T21:30:29.274Z,100081.75
2023-04-10T21:33:00.705Z,100132.53
2023-04-10T21:35:32.147Z,100066.72
2023-04-10T21:38:03.664Z,100137.44
2023-04-10T21:40:35.284Z,100115.84
2023-04-10T21:43:06.787Z,100048.16
2023-04-10T21:45:38.400Z,100118.94
2023-04-10T21:48:09.830Z,100114.03
2023-04-10T21:50:41.427Z,100113.69
2023-04-10T21:53:13.256Z,100125.38
2023-04-10T21:55:44.654Z,100112.88
2023-04-10T21:58:16.267Z,100145.72
2023-04-10T22:00:49.797Z,100145.44
2023-04-10T22:03:22.021Z,100081.13
2023-04-10T22:05:53.566Z,100118.78
2023-04-10T22:08:24.992Z,100092.25
2023-04-10T22:10:56.460Z,100146.88
2023-04-10T22:13:31.216Z,100118.03
2023-04-10T22:16:02.879Z,100143.50
2023-04-10T22:18:34.343Z,100156.16
2023-04-10T22:21:06.079Z,100057.88
2023-04-10T22:23:37.460Z,100123.09
2023-04-10T22:26:08.811Z,100064.97
2023-04-10T22:28:40.188Z,100078.28
2023-04-10T22:31:16.600Z,100044.41
2023-04-10T22:33:49.179Z,100048.06
2023-04-10T22:36:21.456Z,100069.72
2023-04-10T22:38:53.035Z,100074.16
2023-04-10T22:41:24.531Z,100051.72
2023-04-10T22:43:55.956Z,100082.91
2023-04-10T22:46:27.324Z,100011.13
2023-04-10T22:48:58.761Z,100024.25
2023-04-10T22:51:30.127Z,100060.94
2023-04-10T22:54:01.532Z,100026.44
2023-04-10T22:56:32.883Z,100010.81
2023-04-10T22:59:04.177Z,100056.91
2023-04-10T23:01:36.549Z,99980.44
2023-04-10T23:04:08.027Z,100051.00
2023-04-10T23:06:40.209Z,100020.16
2023-04-10T23:09:11.847Z,100036.63
2023-04-10T23:11:43.480Z,100020.69
2023-04-10T23:14:14.867Z,99980.91
2023-04-10T23:16:46.537Z,100031.53
2023-04-10T23:19:18.547Z,100012.34
2023-04-10T23:21:50.458Z,99979.19
2023-04-10T23:24:21.889Z,100001.84
2023-04-10T23:26:53.199Z,100001.75
2023-04-10T23:29:24.671Z,99969.66
2023-04-10T23:31:56.168Z,100007.88
2023-04-10T23:34:27.542Z,100011.34
2023-04-10T23:36:59.233Z,99938.50
2023-04-10T23:39:30.708Z,99987.84
2023-04-10T23:42:02.616Z,99991.22
2023-04-10T23:44:34.179Z,99956.28
2023-04-10T23:47:06.380Z,99977.03
2023-04-10T23:49:37.781Z,99989.03
2023-04-10T23:52:10.166Z,99923.69
2023-04-10T23:54:43.562Z,99965.16
2023-04-10T23:57:15.071Z,99958.19
2023-04-10T23:59:46.752Z,99940.53
